Time;durP1;ratioP1;P1;durP2;ratioP2;P2;SDS_P1;SDS_P2;PMS_P1;PMS_P2;Temp;Humidity;BMP_temperature;BMP_pressure;BME280_temperature;BME280_humidity;BME280_pressure;Samples;Min_cycle;Max_cycle;Signal;HPM_P1;HPM_P2
2023/02/23 00:01:12;;;;;;;;;;;;;;;-144.99;100.00;52525.56;5008499;28;19943;-69
2023/02/23 00:03:39;;;;;;;;;;;;;;;-144.99;100.00;52566.31;5007496;28;19960;-70
2023/02/23 00:06:06;;;;;;;;;;;;;;;-144.99;100.00;52521.47;5011234;28;20046;-70
2023/02/23 00:08:34;;;;;;;;;;;;;;;-144.99;100.00;52501.09;5012475;28;19944;-70
2023/02/23 00:11:01;;;;;;;;;;;;;;;-144.99;100.00;52513.31;5006920;28;19952;-72
2023/02/23 00:13:29;;;;;;;;;;;;;;;-144.99;100.00;52501.09;5011675;28;19964;-72
2023/02/23 00:15:55;;;;;;;;;;;;;;;-144.99;100.00;52484.78;5003202;28;19943;-71
2023/02/23 00:18:22;;;;;;;;;;;;;;;-144.99;100.00;52476.63;5011952;28;19948;-72
2023/02/23 00:20:56;;;;;;;;;;;;;;;-144.99;100.00;52497.00;5007590;28;20360;-67
2023/02/23 00:23:26;;;;;;;;;;;;;;;-144.99;100.00;52503.13;5008047;28;20012;-72
2023/02/23 00:25:53;;;;;;;;;;;;;;;-144.99;100.00;52525.56;5006580;28;19947;-72
2023/02/23 00:28:19;;;;;;;;;;;;;;;-144.99;100.00;52513.31;5011331;28;19952;-73
2023/02/23 00:30:47;;;;;;;;;;;;;;;-144.99;100.00;52486.81;5011682;28;20025;-73
2023/02/23 00:33:14;;;;;;;;;;;;;;;-144.99;100.00;52547.97;5007433;28;19974;-67
2023/02/23 00:35:41;;;;;;;;;;;;;;;-144.99;100.00;52513.31;5006750;28;20323;-69
2023/02/23 00:38:08;;;;;;;;;;;;;;;-144.99;100.00;52529.63;5007192;28;20306;-69
2023/02/23 00:40:34;;;;;;;;;;;;;;;-144.99;100.00;52513.31;5008417;28;20004;-69
2023/02/23 00:43:01;;;;;;;;;;;;;;;-144.99;100.00;52517.41;5006154;28;19962;-68
2023/02/23 00:45:27;;;;;;;;;;;;;;;-144.99;100.00;52529.63;5006721;28;19961;-68
2023/02/23 00:47:55;;;;;;;;;;;;;;;-144.99;100.00;52517.41;5013603;28;20004;-68
2023/02/23 00:50:22;;;;;;;;;;;;;;;-144.99;100.00;52497.00;4675957;28;9999652;-71
2023/02/23 00:52:48;;;;;;;;;;;;;;;-144.99;100.00;52501.09;5007977;28;20039;-72
2023/02/23 00:55:15;;;;;;;;;;;;;;;-144.99;100.00;52521.47;5004263;28;20410;-72
2023/02/23 00:57:41;;;;;;;;;;;;;;;-144.99;100.00;52519.44;5000418;28;20026;-73
2023/02/23 01:00:17;;;;;;;;;;;;;;;-144.99;100.00;52513.31;5010356;28;19986;-74
2023/02/23 01:02:43;;;;;;;;;;;;;;;-144.99;100.00;52547.97;5007695;28;19958;-74
2023/02/23 01:05:12;;;;;;;;;;;;;;;-144.99;100.00;52533.69;5012870;28;19983;-76
2023/02/23 01:07:39;;;;;;;;;;;;;;;-144.99;100.00;52519.44;5010002;28;19953;-72
2023/02/23 01:10:17;;;;;;;;;;;;;;;-144.99;100.00;52541.84;5018054;28;19987;-73
2023/02/23 01:12:46;;;;;;;;;;;;;;;-144.99;100.00;52525.56;5007653;28;19974;-70
2023/02/23 01:15:12;;;;;;;;;;;;;;;-144.99;100.00;52509.25;5015103;28;20060;-67
2023/02/23 01:17:39;;;;;;;;;;;;;;;-144.99;100.00;52505.16;5011049;28;19941;-68
2023/02/23 01:20:14;;;;;;;;;;;;;;;-144.99;100.00;52515.34;5007331;28;20042;-69
2023/02/23 01:22:42;;;;;;;;;;;;;;;-144.99;100.00;52541.84;5014813;28;20376;-73
2023/02/23 01:25:11;;;;;;;;;;;;;;;-144.99;100.00;52525.56;5007431;28;20050;-72
2023/02/23 01:27:38;;;;;;;;;;;;;;;-144.99;100.00;52554.09;5016794;28;19958;-72
2023/02/23 01:30:04;;;;;;;;;;;;;;;-144.99;100.00;52527.59;5015546;28;20521;-71
2023/02/23 01:32:31;;;;;;;;;;;;;;;-144.99;100.00;52488.84;5017244;28;20002;-72
2023/02/23 01:34:57;;;;;;;;;;;;;;;-144.99;100.00;52545.94;5022580;28;19957;-72
2023/02/23 01:37:24;;;;;;;;;;;;;;;-144.99;100.00;52484.78;5012155;28;19939;-73
2023/02/23 01:39:52;;;;;;;;;;;;;;;-144.99;100.00;52497.00;5021837;28;20015;-73
2023/02/23 01:42:18;;;;;;;;;;;;;;;-144.99;100.00;52517.41;5025866;28;19946;-73
2023/02/23 01:45:03;;;;;;;;;;;;;;;-144.99;100.00;52497.00;5016917;28;19954;-74
2023/02/23 01:47:30;;;;;;;;;;;;;;;-144.99;100.00;52517.41;5003045;28;19941;-73
2023/02/23 01:49:56;;;;;;;;;;;;;;;-144.99;100.00;52529.63;5008059;28;19950;-73
2023/02/23 01:52:23;;;;;;;;;;;;;;;-144.99;100.00;52523.50;5019693;28;19943;-73
2023/02/23 01:54:52;;;;;;;;;;;;;;;-144.99;100.00;52474.59;5013560;28;19954;-73
2023/02/23 01:57:23;;;;;;;;;;;;;;;-144.99;100.00;52497.00;5013464;28;20338;-71
2023/02/23 01:59:51;;;;;;;;;;;;;;;-144.99;100.00;52537.78;5012983;28;19981;-72
2023/02/23 02:02:18;;;;;;;;;;;;;;;-144.99;100.00;52509.25;5010225;28;19937;-73
2023/02/23 02:04:45;;;;;;;;;;;;;;;-144.99;100.00;52537.78;5009904;28;20003;-74
2023/02/23 02:07:13;;;;;;;;;;;;;;;-144.99;100.00;52509.25;5015539;28;20294;-73
2023/02/23 02:09:41;;;;;;;;;;;;;;;-144.99;100.00;52507.19;5013455;28;20282;-73
2023/02/23 02:12:11;;;;;;;;;;;;;;;-144.99;100.00;52545.94;5007471;28;19949;-73
2023/02/23 02:14:39;;;;;;;;;;;;;;;-144.99;100.00;52492.94;5013522;28;19961;-73
2023/02/23 02:17:10;;;;;;;;;;;;;;;-144.99;100.00;52529.63;5008435;28;19945;-73
2023/02/23 02:19:58;;;;;;;;;;;;;;;-144.99;100.00;52558.16;5007088;28;19946;-74
2023/02/23 02:22:42;;;;;;;;;;;;;;;-144.99;100.00;52543.91;5006957;28;19941;-74
2023/02/23 02:25:29;;;;;;;;;;;;;;;-144.99;100.00;52521.47;5001254;28;19959;-74
2023/02/23 02:28:21;;;;;;;;;;;;;;;-144.99;100.00;52515.34;5007574;28;19944;-74
2023/02/23 02:31:06;;;;;;;;;;;;;;;-144.99;100.00;52533.69;5002709;28;19998;-75
2023/02/23 02:33:46;;;;;;;;;;;;;;;-144.99;100.00;52497.00;5014035;28;19961;-75
2023/02/23 02:36:31;;;;;;;;;;;;;;;-144.99;100.00;52517.41;5018033;28;20418;-74
2023/02/23 02:39:06;;;;;;;;;;;;;;;-144.99;100.00;52525.56;5013405;28;20007;-73
2023/02/23 02:41:41;;;;;;;;;;;;;;;-144.99;100.00;52558.16;5019004;28;19974;-73
2023/02/23 02:44:12;;;;;;;;;;;;;;;-144.99;100.00;52509.25;5012059;28;19958;-73
2023/02/23 02:46:40;;;;;;;;;;;;;;;-144.99;100.00;52517.41;5014125;28;19939;-73
2023/02/23 02:49:12;;;;;;;;;;;;;;;-144.99;100.00;52556.13;5022889;28;19960;-73
2023/02/23 02:51:41;;;;;;;;;;;;;;;-144.99;100.00;52556.13;5008065;28;19943;-73
2023/02/23 02:54:15;;;;;;;;;;;;;;;-144.99;100.00;52484.78;5009950;28;19929;-73
2023/02/23 02:56:43;;;;;;;;;;;;;;;-144.99;100.00;52519.44;5010169;28;19946;-67
2023/02/23 04:19:32;;;;;;;;;;;;;;;-144.99;100.00;52550.00;5012359;28;20354;-69
2023/02/23 04:21:59;;;;;;;;;;;;;;;-144.99;100.00;52529.63;5004718;28;19946;-71
2023/02/23 04:24:25;;;;;;;;;;;;;;;-144.99;100.00;52533.69;5001805;28;20002;-70
2023/02/23 04:26:52;;;;;;;;;;;;;;;-144.99;100.00;52521.47;5011976;28;19988;-69
2023/02/23 04:29:18;;;;;;;;;;;;;;;-144.99;100.00;52525.56;5012098;28;19962;-67
2023/02/23 04:31:45;;;;;;;;;;;;;;;-144.99;100.00;52513.31;5020359;28;19937;-68
2023/02/23 04:34:13;;;;;;;;;;;;;;;-144.99;100.00;52517.41;5032012;28;20126;-72
2023/02/23 04:36:39;;;;;;;;;;;;;;;-144.99;100.00;52505.16;5036030;28;19952;-68
2023/02/23 04:39:06;;;;;;;;;;;;;;;-144.99;100.00;52529.63;5033831;28;19941;-71
2023/02/23 04:41:32;;;;;;;;;;;;;;;-144.99;100.00;52537.78;5038868;28;19960;-69
2023/02/23 04:43:59;;;;;;;;;;;;;;;-144.99;100.00;52519.44;5033850;28;19955;-71
2023/02/23 04:46:25;;;;;;;;;;;;;;;-144.99;100.00;52545.94;5034400;28;19934;-71
2023/02/23 04:48:52;;;;;;;;;;;;;;;-144.99;100.00;52525.56;5039490;28;19949;-72
2023/02/23 04:51:20;;;;;;;;;;;;;;;-144.99;100.00;52529.63;5036129;28;19934;-72
2023/02/23 04:53:46;;;;;;;;;;;;;;;-144.99;100.00;52527.59;5039102;28;19950;-71
2023/02/23 04:56:14;;;;;;;;;;;;;;;-144.99;100.00;52476.63;5032629;28;19945;-71
2023/02/23 04:58:40;;;;;;;;;;;;;;;-144.99;100.00;52497.00;5030793;28;19948;-71
2023/02/23 05:01:08;;;;;;;;;;;;;;;-144.99;100.00;52521.47;5015477;28;20035;-71
2023/02/23 05:03:35;;;;;;;;;;;;;;;-144.99;100.00;52521.47;5017259;28;19963;-71
2023/02/23 05:06:01;;;;;;;;;;;;;;;-144.99;100.00;52517.41;5011488;28;20045;-71
2023/02/23 05:08:30;;;;;;;;;;;;;;;-144.99;100.00;52521.47;5016247;28;19964;-70
2023/02/23 05:10:56;;;;;;;;;;;;;;;-144.99;100.00;52497.00;5013261;28;20336;-70
2023/02/23 05:13:23;;;;;;;;;;;;;;;-144.99;100.00;52497.00;5016965;28;19994;-70
2023/02/23 05:15:50;;;;;;;;;;;;;;;-144.99;100.00;52486.81;5009525;28;19985;-72
2023/02/23 05:18:17;;;;;;;;;;;;;;;-144.99;100.00;52505.16;5012941;28;20416;-71
2023/02/23 05:20:44;;;;;;;;;;;;;;;-144.99;100.00;52501.09;5010561;28;19974;-74
2023/02/23 05:23:11;;;;;;;;;;;;;;;-144.99;100.00;52525.56;5007578;28;19974;-74
2023/02/23 05:25:39;;;;;;;;;;;;;;;-144.99;100.00;52541.84;5002966;28;19945;-64
2023/02/23 05:28:06;;;;;;;;;;;;;;;-144.99;100.00;52539.81;5008081;28;19999;-69
2023/02/23 05:30:33;;;;;;;;;;;;;;;-144.99;100.00;52525.56;5014699;28;19980;-67
2023/02/23 05:32:59;;;;;;;;;;;;;;;-144.99;100.00;52537.78;5011262;28;19942;-68
2023/02/23 05:35:26;;;;;;;;;;;;;;;-144.99;100.00;52501.09;5008907;28;19996;-67
2023/02/23 05:37:52;;;;;;;;;;;;;;;-144.99;100.00;52554.09;5010866;28;19941;-68
2023/02/23 05:40:19;;;;;;;;;;;;;;;-144.99;100.00;52486.81;5013306;28;20027;-68
2023/02/23 05:42:47;;;;;;;;;;;;;;;-144.99;100.00;52488.84;5013626;28;20005;-68
2023/02/23 05:45:14;;;;;;;;;;;;;;;-144.99;100.00;52497.00;5009064;28;20486;-68
2023/02/23 05:47:40;;;;;;;;;;;;;;;-144.99;100.00;52558.16;5008609;28;20044;-69
2023/02/23 05:50:08;;;;;;;;;;;;;;;-144.99;100.00;52486.81;5012809;28;19947;-70
2023/02/23 05:52:37;;;;;;;;;;;;;;;-144.99;100.00;52519.44;5011607;28;19939;-71
2023/02/23 05:55:04;;;;;;;;;;;;;;;-144.99;100.00;52521.47;5008153;28;19972;-71
2023/02/23 05:57:31;;;;;;;;;;;;;;;-144.99;100.00;52521.47;5010421;28;20022;-70
2023/02/23 05:59:58;;;;;;;;;;;;;;;-144.99;100.00;52513.31;5013047;28;19945;-70
2023/02/23 06:02:25;;;;;;;;;;;;;;;-144.99;100.00;52497.00;5011577;28;20001;-69
2023/02/23 06:04:51;;;;;;;;;;;;;;;-144.99;100.00;52541.84;5012270;28;20376;-70
2023/02/23 06:07:18;;;;;;;;;;;;;;;-144.99;100.00;52497.00;5016055;28;19990;-70
2023/02/23 06:09:44;;;;;;;;;;;;;;;-144.99;100.00;52537.78;5011578;28;19988;-68
2023/02/23 06:12:11;;;;;;;;;;;;;;;-144.99;100.00;52509.25;5016843;28;19945;-65
2023/02/23 06:14:37;;;;;;;;;;;;;;;-144.99;100.00;52501.09;5013327;28;19997;-65
2023/02/23 06:17:06;;;;;;;;;;;;;;;-144.99;100.00;52525.56;5004702;28;20354;-64
2023/02/23 06:19:33;;;;;;;;;;;;;;;-144.99;100.00;52541.84;5011923;28;19946;-65
2023/02/23 06:21:59;;;;;;;;;;;;;;;-144.99;100.00;52574.47;5014508;28;20006;-65
2023/02/23 06:24:26;;;;;;;;;;;;;;;-144.99;100.00;52523.50;5014181;28;20361;-76
2023/02/23 06:26:52;;;;;;;;;;;;;;;-144.99;100.00;52525.56;5011554;28;19995;-75
2023/02/23 06:29:19;;;;;;;;;;;;;;;-144.99;100.00;52486.81;4317073;28;10000751;-75
2023/02/23 06:31:45;;;;;;;;;;;;;;;-144.99;100.00;52497.00;5005250;28;19992;-74
2023/02/23 06:34:13;;;;;;;;;;;;;;;-144.99;100.00;52525.56;5009563;28;20519;-75
2023/02/23 06:36:40;;;;;;;;;;;;;;;-144.99;100.00;52497.00;5011090;28;19981;-75
2023/02/23 06:39:06;;;;;;;;;;;;;;;-144.99;100.00;52513.31;5012429;28;19993;-75
2023/02/23 06:41:34;;;;;;;;;;;;;;;-144.99;100.00;52517.41;5005606;28;20031;-75
2023/02/23 06:44:00;;;;;;;;;;;;;;;-144.99;100.00;52488.84;5006233;28;20068;-74
2023/02/23 06:46:27;;;;;;;;;;;;;;;-144.99;100.00;52562.25;5000324;28;19989;-75
2023/02/23 06:48:55;;;;;;;;;;;;;;;-144.99;100.00;52517.41;5005206;28;19945;-75
2023/02/23 06:51:23;;;;;;;;;;;;;;;-144.99;100.00;52511.28;5007487;28;20027;-75
2023/02/23 06:53:51;;;;;;;;;;;;;;;-144.99;100.00;52505.16;5004528;28;19958;-75
2023/02/23 06:56:17;;;;;;;;;;;;;;;-144.99;100.00;52517.41;5007047;28;19987;-75
2023/02/23 06:58:44;;;;;;;;;;;;;;;-144.99;100.00;52513.31;5008145;28;20466;-75
2023/02/23 07:01:11;;;;;;;;;;;;;;;-144.99;100.00;52507.19;5008031;28;20364;-76
2023/02/23 07:03:38;;;;;;;;;;;;;;;-144.99;100.00;52509.25;5007919;28;20053;-75
2023/02/23 07:06:06;;;;;;;;;;;;;;;-144.99;100.00;52525.56;5008397;28;19985;-75
2023/02/23 07:08:34;;;;;;;;;;;;;;;-144.99;100.00;52509.25;5004524;28;19942;-75
2023/02/23 07:11:05;;;;;;;;;;;;;;;-144.99;100.00;52497.00;5005860;28;20045;-75
2023/02/23 07:13:31;;;;;;;;;;;;;;;-144.99;100.00;52517.41;5008676;28;20052;-75
2023/02/23 07:15:58;;;;;;;;;;;;;;;-144.99;100.00;52492.94;5005745;28;20729;-75
2023/02/23 07:18:24;;;;;;;;;;;;;;;-144.99;100.00;52497.00;5004484;28;19945;-75
2023/02/23 07:20:51;;;;;;;;;;;;;;;-144.99;100.00;52525.56;5003539;28;20348;-75
2023/02/23 07:23:18;;;;;;;;;;;;;;;-144.99;100.00;52558.16;5006905;28;19940;-75
2023/02/23 07:25:46;;;;;;;;;;;;;;;-144.99;100.00;52545.94;4998310;28;19955;-75
2023/02/23 07:28:13;;;;;;;;;;;;;;;-144.99;100.00;52480.72;5001504;28;20057;-75
2023/02/23 07:30:39;;;;;;;;;;;;;;;-144.99;100.00;52513.31;5001411;28;19943;-75
2023/02/23 07:33:06;;;;;;;;;;;;;;;-144.99;100.00;52460.31;4999631;28;20042;-75
2023/02/23 07:35:32;;;;;;;;;;;;;;;-144.99;100.00;52497.00;5003955;28;20031;-75
2023/02/23 07:37:59;;;;;;;;;;;;;;;-144.99;100.00;52505.16;5002997;28;20361;-74
2023/02/23 07:40:26;;;;;;;;;;;;;;;-144.99;100.00;52525.56;5003200;28;20091;-73
2023/02/23 07:42:54;;;;;;;;;;;;;;;-144.99;100.00;52507.19;4999588;28;20257;-74
2023/02/23 07:45:22;;;;;;;;;;;;;;;-144.99;100.00;52521.47;5005956;28;19967;-73
2023/02/23 07:47:48;;;;;;;;;;;;;;;-144.99;100.00;52484.78;5004812;28;19943;-73
2023/02/23 07:50:15;;;;;;;;;;;;;;;-144.99;100.00;52501.09;5006217;28;19945;-74
2023/02/23 07:52:42;;;;;;;;;;;;;;;-144.99;100.00;52517.41;5007030;28;20392;-73
2023/02/23 07:55:09;;;;;;;;;;;;;;;-144.99;100.00;52533.69;5014384;28;19959;-75
2023/02/23 07:57:36;;;;;;;;;;;;;;;-144.99;100.00;52545.94;5022199;28;19958;-74
2023/02/23 08:00:04;;;;;;;;;;;;;;;-144.99;100.00;52513.31;5008621;28;20008;-75
2023/02/23 08:02:31;;;;;;;;;;;;;;;-144.99;100.00;52513.31;5008364;28;19943;-75
2023/02/23 08:04:58;;;;;;;;;;;;;;;-144.99;100.00;52521.47;4659840;28;10000528;-74
2023/02/23 08:07:25;;;;;;;;;;;;;;;-144.99;100.00;52529.63;5006741;28;20014;-74
2023/02/23 08:09:52;;;;;;;;;;;;;;;-144.99;100.00;52529.63;5005850;28;19946;-74
2023/02/23 08:12:19;;;;;;;;;;;;;;;-144.99;100.00;52509.25;5003402;28;20503;-74
2023/02/23 08:14:45;;;;;;;;;;;;;;;-144.99;100.00;52533.69;5005687;28;20060;-74
2023/02/23 08:17:13;;;;;;;;;;;;;;;-144.99;100.00;52547.97;5003222;28;19955;-75
2023/02/23 08:19:40;;;;;;;;;;;;;;;-144.99;100.00;52533.69;5003482;28;20048;-75
2023/02/23 08:22:07;;;;;;;;;;;;;;;-144.99;100.00;52507.19;5004763;28;19993;-76
2023/02/23 08:24:33;;;;;;;;;;;;;;;-144.99;100.00;52541.84;4993104;28;19962;-76
2023/02/23 08:27:01;;;;;;;;;;;;;;;-144.99;100.00;52468.47;4998810;28;19948;-76
2023/02/23 08:29:28;;;;;;;;;;;;;;;-144.99;100.00;52521.47;5002646;28;20018;-76
2023/02/23 08:31:55;;;;;;;;;;;;;;;-144.99;100.00;52494.97;5001988;28;20030;-77
2023/02/23 08:34:23;;;;;;;;;;;;;;;-144.99;100.00;52513.31;5010191;28;19959;-77
2023/02/23 08:36:50;;;;;;;;;;;;;;;-144.99;100.00;52533.69;5009308;28;19951;-77
2023/02/23 08:39:16;;;;;;;;;;;;;;;-144.99;100.00;52509.25;5006217;28;20005;-77
2023/02/23 08:41:43;;;;;;;;;;;;;;;-144.99;100.00;52537.78;5013174;28;19952;-77
2023/02/23 08:44:09;;;;;;;;;;;;;;;-144.99;100.00;52517.41;5020001;28;19983;-78
2023/02/23 08:46:36;;;;;;;;;;;;;;;-144.99;100.00;52513.31;5014112;28;20046;-77
2023/02/23 08:49:03;;;;;;;;;;;;;;;-144.99;100.00;52505.16;5013962;28;19968;-77
2023/02/23 08:51:31;;;;;;;;;;;;;;;-144.99;100.00;52517.41;5004166;28;19944;-77
2023/02/23 08:53:58;;;;;;;;;;;;;;;-144.99;100.00;52529.63;5003918;28;19962;-77
2023/02/23 08:56:25;;;;;;;;;;;;;;;-144.99;100.00;52537.78;4996712;28;19959;-77
2023/02/23 08:58:52;;;;;;;;;;;;;;;-144.99;100.00;52507.19;5006690;28;19953;-77
2023/02/23 09:01:20;;;;;;;;;;;;;;;-144.99;100.00;52513.31;5006813;28;19941;-78
2023/02/23 09:03:47;;;;;;;;;;;;;;;-144.99;100.00;52488.84;5007664;28;19955;-77
2023/02/23 09:06:14;;;;;;;;;;;;;;;-144.99;100.00;52545.94;5003659;28;20041;-77
2023/02/23 09:08:42;;;;;;;;;;;;;;;-144.99;100.00;52492.94;5004133;28;20687;-77
2023/02/23 09:11:09;;;;;;;;;;;;;;;-144.99;100.00;52558.16;4998936;28;20045;-79
2023/02/23 09:13:36;;;;;;;;;;;;;;;-144.99;100.00;52507.19;5000682;28;20000;-78
2023/02/23 09:16:03;;;;;;;;;;;;;;;-144.99;100.00;52507.19;5010577;28;19948;-77
2023/02/23 09:18:31;;;;;;;;;;;;;;;-144.99;100.00;52525.56;4992028;28;20048;-77
2023/02/23 09:20:58;;;;;;;;;;;;;;;-144.99;100.00;52497.00;5013098;28;19954;-77
2023/02/23 09:23:28;;;;;;;;;;;;;;;-144.99;100.00;52517.41;5008293;28;19947;-77
2023/02/23 09:25:56;;;;;;;;;;;;;;;-144.99;100.00;52468.47;5001448;28;19967;-77
2023/02/23 09:28:23;;;;;;;;;;;;;;;-144.99;100.00;52525.56;5008423;28;20001;-77
2023/02/23 09:30:49;;;;;;;;;;;;;;;-144.99;100.00;52490.91;5015028;28;19968;-77
2023/02/23 09:33:16;;;;;;;;;;;;;;;-144.99;100.00;52521.47;5029778;28;19928;-77
2023/02/23 09:35:42;;;;;;;;;;;;;;;-144.99;100.00;52525.56;5009639;28;20441;-77
2023/02/23 09:38:09;;;;;;;;;;;;;;;-144.99;100.00;52484.78;5006423;28;19950;-77
2023/02/23 09:40:42;;;;;;;;;;;;;;;-144.99;100.00;52494.97;5005973;28;19944;-77
2023/02/23 09:43:14;;;;;;;;;;;;;;;-144.99;100.00;52521.47;5008258;28;19998;-77
2023/02/23 09:45:42;;;;;;;;;;;;;;;-144.99;100.00;52488.84;5010385;28;20339;-77
2023/02/23 09:48:12;;;;;;;;;;;;;;;-144.99;100.00;52541.84;5003008;28;20009;-77
2023/02/23 09:50:39;;;;;;;;;;;;;;;-144.99;100.00;52513.31;5006368;28;20139;-77
2023/02/23 09:53:11;;;;;;;;;;;;;;;-144.99;100.00;52509.25;5009026;28;19947;-77
2023/02/23 09:55:39;;;;;;;;;;;;;;;-144.99;100.00;52541.84;5007302;28;20252;-76
2023/02/23 09:58:08;;;;;;;;;;;;;;;-144.99;100.00;52525.56;5010381;28;20503;-76
2023/02/23 10:00:40;;;;;;;;;;;;;;;-144.99;100.00;52541.84;4996426;28;20357;-76
2023/02/23 10:03:13;;;;;;;;;;;;;;;-144.99;100.00;52511.28;5017536;28;19950;-76
2023/02/23 10:05:42;;;;;;;;;;;;;;;-144.99;100.00;52517.41;5006293;28;20439;-77
2023/02/23 10:08:18;;;;;;;;;;;;;;;-144.99;100.00;52550.00;5009363;28;19966;-77
2023/02/23 10:10:47;;;;;;;;;;;;;;;-144.99;100.00;52509.25;5011266;28;19943;-77
2023/02/23 10:13:21;;;;;;;;;;;;;;;-144.99;100.00;52488.84;5005354;28;19949;-78
2023/02/23 10:15:52;;;;;;;;;;;;;;;-144.99;100.00;52521.47;5012569;28;20316;-77
2023/02/23 10:18:22;;;;;;;;;;;;;;;-144.99;100.00;52533.69;5006949;28;20503;-77
2023/02/23 10:20:53;;;;;;;;;;;;;;;-144.99;100.00;52513.31;5010633;28;19943;-77
2023/02/23 10:23:23;;;;;;;;;;;;;;;-144.99;100.00;52509.25;5008636;28;19990;-77
2023/02/23 10:25:51;;;;;;;;;;;;;;;-144.99;100.00;52492.94;5007176;28;20151;-78
2023/02/23 10:28:20;;;;;;;;;;;;;;;-144.99;100.00;52501.09;5003781;28;19954;-77
2023/02/23 10:30:47;;;;;;;;;;;;;;;-144.99;100.00;52501.09;5019189;28;19954;-76
2023/02/23 10:33:18;;;;;;;;;;;;;;;-144.99;99.55;52492.94;5025069;28;20238;-78
2023/02/23 10:35:45;;;;;;;;;;;;;;;-144.99;98.09;52525.56;5020353;28;19966;-77
2023/02/23 10:38:14;;;;;;;;;;;;;;;-144.99;98.04;52545.94;5013397;28;20108;-78
2023/02/23 10:40:41;;;;;;;;;;;;;;;-144.99;97.41;52509.25;5017049;28;19964;-77
2023/02/23 10:43:11;;;;;;;;;;;;;;;-144.99;96.56;52501.09;5007584;28;20319;-77
2023/02/23 10:45:39;;;;;;;;;;;;;;;-144.99;96.11;52497.00;4996758;28;19962;-78
2023/02/23 10:48:07;;;;;;;;;;;;;;;-144.99;95.25;52529.63;5005978;28;19944;-78
2023/02/23 10:50:36;;;;;;;;;;;;;;;-144.99;94.89;52525.56;5009711;28;20031;-78
2023/02/23 10:53:11;;;;;;;;;;;;;;;-144.99;94.22;52513.31;5009414;28;19953;-78
2023/02/23 10:55:38;;;;;;;;;;;;;;;-144.99;94.33;52529.63;5006021;28;20434;-78
2023/02/23 10:58:08;;;;;;;;;;;;;;;-144.99;94.50;52529.63;5002304;28;19943;-78
2023/02/23 11:00:36;;;;;;;;;;;;;;;-144.99;94.34;52525.56;5007929;28;20297;-77
2023/02/23 11:03:17;;;;;;;;;;;;;;;-144.99;94.20;52517.41;5005770;28;19953;-77
2023/02/23 11:05:48;;;;;;;;;;;;;;;-144.99;93.28;52507.19;5006091;28;19962;-77
2023/02/23 11:08:20;;;;;;;;;;;;;;;-144.99;92.50;52525.56;5013252;28;20399;-77
2023/02/23 11:11:04;;;;;;;;;;;;;;;-144.99;91.79;52488.84;5011468;28;19944;-77
2023/02/23 11:13:35;;;;;;;;;;;;;;;-144.99;91.59;52523.50;5011481;28;19947;-79
2023/02/23 11:16:03;;;;;;;;;;;;;;;-144.99;91.05;52501.09;5024266;28;19955;-77
2023/02/23 11:18:30;;;;;;;;;;;;;;;-144.99;90.86;52482.75;5008722;28;19937;-77
2023/02/23 11:20:58;;;;;;;;;;;;;;;-144.99;90.56;52501.09;4999642;28;19948;-79
2023/02/23 11:23:27;;;;;;;;;;;;;;;-144.99;91.14;52513.31;5005328;28;19952;-78
2023/02/23 11:25:55;;;;;;;;;;;;;;;-144.99;91.26;52529.63;5003187;28;19959;-77
2023/02/23 11:28:29;;;;;;;;;;;;;;;-144.99;91.04;52505.16;5005816;28;20064;-79
2023/02/23 11:31:01;;;;;;;;;;;;;;;-144.99;91.40;52529.63;4996865;28;20428;-77
2023/02/23 11:33:30;;;;;;;;;;;;;;;-144.99;90.96;52484.78;5001139;28;19988;-77
2023/02/23 11:35:59;;;;;;;;;;;;;;;-144.99;90.74;52480.72;5004493;28;20251;-79
2023/02/23 11:38:27;;;;;;;;;;;;;;;-144.99;90.29;52464.41;5007316;28;20428;-77
2023/02/23 11:41:01;;;;;;;;;;;;;;;-144.99;89.92;52497.00;5005162;28;19954;-77
2023/02/23 11:43:27;;;;;;;;;;;;;;;-144.99;90.09;52492.94;5007770;28;20001;-77
2023/02/23 11:45:55;;;;;;;;;;;;;;;-144.99;90.13;52566.31;4998644;28;20006;-77
2023/02/23 11:48:25;;;;;;;;;;;;;;;-144.99;90.48;52478.66;5003588;28;19948;-77
2023/02/23 11:50:53;;;;;;;;;;;;;;;-144.99;91.11;52566.31;5007932;28;19942;-77
2023/02/23 11:53:27;;;;;;;;;;;;;;;-144.99;90.67;52541.84;4999861;28;20637;-78
2023/02/23 11:55:55;;;;;;;;;;;;;;;-144.99;90.62;52464.41;4998783;28;20350;-77
2023/02/23 11:58:25;;;;;;;;;;;;;;;-144.99;90.77;52492.94;5006833;28;19940;-77
2023/02/23 12:00:55;;;;;;;;;;;;;;;-144.99;90.95;52511.28;5011904;28;20000;-77
2023/02/23 12:03:23;;;;;;;;;;;;;;;-144.99;90.44;52513.31;5019702;28;20063;-76
2023/02/23 12:05:52;;;;;;;;;;;;;;;-144.99;91.02;52509.25;5010551;28;19957;-77
2023/02/23 12:08:21;;;;;;;;;;;;;;;-144.99;91.26;52521.47;5000318;28;20179;-78
2023/02/23 12:10:51;;;;;;;;;;;;;;;-144.99;90.72;52509.25;5002883;28;20461;-76
2023/02/23 12:13:24;;;;;;;;;;;;;;;-144.99;90.95;52529.63;4998602;28;20371;-78
2023/02/23 12:15:53;;;;;;;;;;;;;;;-144.99;90.91;52525.56;5002119;28;19943;-77
2023/02/23 12:18:30;;;;;;;;;;;;;;;-144.99;91.17;52509.25;5003353;28;19978;-77
2023/02/23 12:20:59;;;;;;;;;;;;;;;-144.99;90.93;52554.09;5006697;28;19985;-76
2023/02/23 12:23:30;;;;;;;;;;;;;;;-144.99;90.84;52521.47;5008046;28;20366;-78
2023/02/23 12:26:01;;;;;;;;;;;;;;;-144.99;91.54;52523.50;5006899;28;20526;-77
2023/02/23 12:28:33;;;;;;;;;;;;;;;-144.99;90.92;52503.13;5007445;28;19992;-77
2023/02/23 12:31:02;;;;;;;;;;;;;;;-144.99;91.14;52497.00;5005944;28;20020;-76
2023/02/23 12:33:34;;;;;;;;;;;;;;;-144.99;91.19;52521.47;5006999;28;20427;-78
2023/02/23 12:36:03;;;;;;;;;;;;;;;-144.99;90.85;52566.31;5006974;28;19951;-78
2023/02/23 12:38:33;;;;;;;;;;;;;;;-144.99;91.65;52505.16;5007778;28;20508;-78
2023/02/23 12:41:05;;;;;;;;;;;;;;;-144.99;91.91;52537.78;5006553;28;20020;-78
2023/02/23 12:43:35;;;;;;;;;;;;;;;-144.99;91.94;52529.63;5007136;28;19964;-78
2023/02/23 12:46:07;;;;;;;;;;;;;;;-144.99;92.28;52521.47;5003719;28;19961;-79
2023/02/23 12:48:37;;;;;;;;;;;;;;;-144.99;92.24;52499.06;4999324;28;20583;-76
2023/02/23 12:51:06;;;;;;;;;;;;;;;-144.99;92.08;52505.16;5021853;28;19948;-79
2023/02/23 12:53:35;;;;;;;;;;;;;;;-144.99;92.58;52513.31;5014107;28;19967;-79
2023/02/23 12:56:14;;;;;;;;;;;;;;;-144.99;92.03;52517.41;5009416;28;19949;-78
2023/02/23 12:58:45;;;;;;;;;;;;;;;-144.99;92.29;52517.41;5010343;28;20086;-78
2023/02/23 13:01:16;;;;;;;;;;;;;;;-144.99;91.99;52484.78;5009171;28;20054;-77
2023/02/23 13:03:50;;;;;;;;;;;;;;;-144.99;91.86;52497.00;5009738;28;20002;-79
2023/02/23 13:06:20;;;;;;;;;;;;;;;-144.99;92.78;52554.09;5011346;28;19995;-78
2023/02/23 13:09:01;;;;;;;;;;;;;;;-144.99;92.66;52541.84;5010198;28;20034;-78
2023/02/23 13:11:39;;;;;;;;;;;;;;;-144.99;92.82;52529.63;5008402;28;19975;-78
2023/02/23 13:14:12;;;;;;;;;;;;;;;-144.99;93.03;52517.41;5011122;28;20439;-77
2023/02/23 13:16:43;;;;;;;;;;;;;;;-144.99;94.19;52537.78;5008358;28;20359;-78
2023/02/23 13:19:14;;;;;;;;;;;;;;;-144.99;94.62;52554.09;5007489;28;19942;-78
2023/02/23 13:21:41;;;;;;;;;;;;;;;-144.99;94.74;52578.53;5004434;28;19950;-76
2023/02/23 13:24:12;;;;;;;;;;;;;;;-144.99;94.97;52529.63;5006228;28;20020;-78
2023/02/23 13:26:45;;;;;;;;;;;;;;;-144.99;95.35;52539.81;5009882;28;20019;-78
2023/02/23 13:29:22;;;;;;;;;;;;;;;-144.99;95.14;52501.09;5009171;28;19963;-78
2023/02/23 13:31:49;;;;;;;;;;;;;;;-144.99;95.44;52525.56;5006321;28;20470;-78
2023/02/23 13:34:27;;;;;;;;;;;;;;;-144.99;95.23;52525.56;5009585;28;20049;-76
2023/02/23 13:36:55;;;;;;;;;;;;;;;-144.99;94.91;52550.00;5009224;28;19948;-79
2023/02/23 13:39:40;;;;;;;;;;;;;;;-144.99;94.29;52513.31;5009090;28;19942;-78
2023/02/23 13:42:16;;;;;;;;;;;;;;;-144.99;95.02;52521.47;5006413;28;20023;-76
2023/02/23 13:44:48;;;;;;;;;;;;;;;-144.99;95.02;52525.56;5007106;28;20376;-78
2023/02/23 13:47:18;;;;;;;;;;;;;;;-144.99;95.49;52529.63;4997540;28;20003;-78
2023/02/23 13:49:49;;;;;;;;;;;;;;;-144.99;95.88;52527.59;5008549;28;20026;-78